Time;durP1;ratioP1;P1;durP2;ratioP2;P2;SDS_P1;SDS_P2;PMS_P1;PMS_P2;Temp;Humidity;BMP_temperature;BMP_pressure;BME280_temperature;BME280_humidity;BME280_pressure;Samples;Min_cycle;Max_cycle;Signal;HPM_P1;HPM_P2
2021/03/04 00:01:20;;;;;;;29.23;17.80;;;10.70;75.60;;;;;;4993243;28;20031;-87
2021/03/04 00:03:45;;;;;;;30.05;17.48;;;10.70;75.60;;;;;;4960959;28;20038;-87
2021/03/04 00:06:11;;;;;;;30.17;18.98;;;10.70;75.60;;;;;;5008277;28;20038;-88
2021/03/04 00:08:37;;;;;;;31.90;19.48;;;10.70;75.60;;;;;;4996102;28;20026;-88
2021/03/04 00:11:03;;;;;;;30.10;18.52;;;10.70;75.60;;;;;;4993981;28;20566;-88
2021/03/04 00:13:29;;;;;;;30.73;18.92;;;10.70;75.70;;;;;;4979387;28;20134;-87
2021/03/04 00:15:55;;;;;;;31.13;18.70;;;10.70;75.70;;;;;;4960282;28;20075;-88
2021/03/04 00:18:20;;;;;;;30.23;18.05;;;10.60;75.70;;;;;;4958189;28;20027;-87
2021/03/04 00:20:46;;;;;;;30.00;17.33;;;10.60;76.30;;;;;;5001704;28;20042;-88
2021/03/04 00:23:12;;;;;;;32.75;18.92;;;10.60;75.70;;;;;;4978793;28;20034;-88
2021/03/04 00:25:38;;;;;;;29.98;19.17;;;10.60;75.70;;;;;;4995521;28;20101;-88
2021/03/04 00:28:04;;;;;;;29.73;18.60;;;10.60;75.70;;;;;;4978985;28;20049;-88
2021/03/04 00:30:30;;;;;;;32.25;19.30;;;10.50;75.70;;;;;;4978964;28;20090;-88
2021/03/04 00:32:56;;;;;;;29.83;18.40;;;10.50;75.70;;;;;;4979401;28;20014;-88
2021/03/04 00:35:23;;;;;;;31.65;19.50;;;10.50;75.70;;;;;;4995245;28;20054;-89
2021/03/04 00:37:49;;;;;;;29.88;17.25;;;10.50;75.70;;;;;;4978813;28;20479;-88
2021/03/04 00:40:19;;;;;;;32.38;18.73;;;10.40;75.70;;;;;;4995376;28;20030;-89
2021/03/04 00:42:45;;;;;;;31.55;19.33;;;10.40;75.70;;;;;;4978728;28;20081;-88
2021/03/04 00:45:14;;;;;;;32.00;18.40;;;10.40;75.70;;;;;;4984749;28;20034;-88
2021/03/04 00:47:40;;;;;;;29.48;17.45;;;10.40;75.70;;;;;;4992449;28;20037;-88
2021/03/04 00:50:07;;;;;;;33.33;18.90;;;10.40;75.70;;;;;;4969271;28;20031;-88
2021/03/04 00:52:33;;;;;;;28.75;17.70;;;10.40;75.70;;;;;;4991722;28;20030;-88
2021/03/04 00:54:59;;;;;;;31.65;18.90;;;10.40;75.80;;;;;;4978774;28;20026;-88
2021/03/04 00:57:28;;;;;;;30.98;18.40;;;10.30;75.70;;;;;;5011363;28;20505;-89
2021/03/04 00:59:54;;;;;;;28.35;17.67;;;10.30;75.70;;;;;;4994346;28;20080;-88
2021/03/04 01:02:19;;;;;;;30.20;17.90;;;10.30;75.80;;;;;;4978507;28;20026;-88
2021/03/04 01:04:45;;;;;;;31.75;19.42;;;10.30;75.80;;;;;;4978420;28;20033;-88
2021/03/04 01:07:11;;;;;;;31.30;17.05;;;10.30;75.80;;;;;;4984889;28;20066;-88
2021/03/04 01:09:37;;;;;;;31.13;18.65;;;10.30;75.80;;;;;;4977724;28;20501;-89
2021/03/04 01:12:03;;;;;;;31.88;17.80;;;10.30;75.90;;;;;;4970902;28;20035;-88
2021/03/04 01:14:29;;;;;;;30.70;18.15;;;10.30;75.80;;;;;;4990498;28;20023;-89
2021/03/04 01:16:56;;;;;;;28.30;17.27;;;10.30;75.80;;;;;;4978465;28;20048;-88
2021/03/04 01:19:22;;;;;;;27.83;17.45;;;10.20;75.80;;;;;;4994652;28;20049;-88
2021/03/04 01:21:47;;;;;;;29.88;19.00;;;10.20;75.90;;;;;;4978160;28;20436;-88
2021/03/04 01:24:13;;;;;;;30.25;17.50;;;10.20;75.80;;;;;;4977401;28;20026;-88
2021/03/04 01:26:39;;;;;;;30.45;17.80;;;10.20;75.90;;;;;;4978367;28;20038;-89
2021/03/04 01:29:05;;;;;;;25.52;16.50;;;10.20;75.80;;;;;;4993553;28;20077;-88
2021/03/04 01:31:31;;;;;;;30.55;18.33;;;10.20;75.80;;;;;;4958727;28;20038;-88
2021/03/04 01:33:57;;;;;;;26.55;17.25;;;10.10;75.80;;;;;;4975296;28;20076;-88
2021/03/04 01:36:22;;;;;;;27.67;16.33;;;10.10;75.80;;;;;;4975264;28;20391;-88
2021/03/04 01:38:48;;;;;;;28.25;16.50;;;10.10;75.80;;;;;;4969594;28;20038;-88
2021/03/04 01:41:14;;;;;;;29.40;19.02;;;10.10;75.90;;;;;;4995129;28;20068;-88
2021/03/04 01:43:40;;;;;;;27.33;16.52;;;10.10;75.90;;;;;;4977948;28;20037;-88
2021/03/04 01:46:06;;;;;;;27.80;16.85;;;10.10;75.90;;;;;;4977996;28;20030;-88
2021/03/04 01:48:32;;;;;;;28.73;16.70;;;10.10;76.00;;;;;;4994596;28;20034;-87
2021/03/04 01:50:58;;;;;;;26.38;16.20;;;10.10;76.00;;;;;;4979060;28;20531;-88
2021/03/04 01:53:23;;;;;;;27.98;16.15;;;10.00;75.90;;;;;;4983246;28;20475;-88
2021/03/04 01:55:50;;;;;;;30.20;17.15;;;10.00;75.90;;;;;;4961210;28;20037;-87
2021/03/04 01:58:16;;;;;;;30.77;16.65;;;10.00;76.00;;;;;;4946555;28;20046;-88
2021/03/04 02:00:41;;;;;;;27.70;17.20;;;10.00;76.00;;;;;;4990986;28;20396;-89
2021/03/04 02:03:09;;;;;;;24.65;15.20;;;10.00;76.00;;;;;;4990607;28;20058;-87
2021/03/04 02:05:35;;;;;;;28.13;16.20;;;10.00;76.00;;;;;;4990782;28;20047;-88
2021/03/04 02:08:27;;;;;;;24.58;15.65;;;10.00;76.00;;;;;;4988988;28;20059;-87
2021/03/04 02:11:09;;;;;;;22.10;14.02;;;9.90;76.10;;;;;;4977172;28;20034;-88
2021/03/04 02:13:47;;;;;;;24.60;15.02;;;9.90;76.00;;;;;;4992982;28;20030;-88
2021/03/04 02:16:31;;;;;;;24.65;14.18;;;9.90;75.90;;;;;;4979957;28;20027;-88
2021/03/04 02:19:00;;;;;;;25.05;14.98;;;9.90;76.00;;;;;;4990418;28;20428;-87
2021/03/04 02:21:51;;;;;;;22.38;13.65;;;9.90;76.00;;;;;;4980070;28;20167;-88
2021/03/04 02:24:38;;;;;;;22.73;13.35;;;9.90;76.00;;;;;;4977620;28;20125;-88
2021/03/04 02:27:13;;;;;;;23.02;14.25;;;9.90;76.00;;;;;;4993643;28;20049;-88
2021/03/04 02:29:45;;;;;;;21.73;13.68;;;9.80;76.00;;;;;;4977518;28;20488;-88
2021/03/04 02:32:12;;;;;;;20.52;12.48;;;9.80;76.10;;;;;;4987944;28;20030;-88
2021/03/04 02:34:48;;;;;;;20.80;13.35;;;9.80;76.10;;;;;;4993462;28;20089;-88
2021/03/04 02:37:17;;;;;;;21.88;13.82;;;9.80;76.10;;;;;;4976006;28;20356;-87
2021/03/04 02:39:45;;;;;;;21.33;12.93;;;9.80;76.10;;;;;;4973977;28;20074;-88
2021/03/04 02:42:16;;;;;;;21.92;13.93;;;9.80;76.10;;;;;;4986512;28;20062;-87
2021/03/04 02:44:43;;;;;;;22.45;13.32;;;9.80;76.10;;;;;;4993683;28;20037;-87
2021/03/04 02:47:10;;;;;;;21.88;14.02;;;9.70;76.00;;;;;;4977194;28;20034;-87
2021/03/04 02:49:36;;;;;;;22.27;14.02;;;9.70;76.10;;;;;;4992757;28;20034;-87
2021/03/04 02:52:05;;;;;;;20.63;12.82;;;9.70;76.10;;;;;;4994012;28;20487;-88
2021/03/04 02:54:31;;;;;;;21.75;13.77;;;9.70;76.10;;;;;;4960654;28;20019;-88
2021/03/04 02:57:00;;;;;;;19.67;12.50;;;9.70;76.10;;;;;;4966876;28;20034;-87
2021/03/04 02:59:27;;;;;;;22.08;13.52;;;9.70;76.10;;;;;;4991075;28;20038;-87
2021/03/04 03:01:54;;;;;;;23.48;14.35;;;9.70;76.10;;;;;;4965511;28;20042;-87
2021/03/04 03:04:20;;;;;;;21.55;14.15;;;9.70;76.10;;;;;;4976433;28;20026;-87
2021/03/04 03:06:47;;;;;;;20.50;13.43;;;9.70;76.10;;;;;;4980084;28;20475;-87
2021/03/04 03:09:13;;;;;;;24.42;13.48;;;9.70;76.10;;;;;;4977288;28;20037;-88
2021/03/04 03:11:39;;;;;;;23.25;14.20;;;9.60;76.00;;;;;;4976806;28;20027;-87
2021/03/04 03:14:07;;;;;;;22.90;14.40;;;9.60;76.10;;;;;;4992862;28;20534;-87
2021/03/04 03:16:33;;;;;;;20.23;12.57;;;9.60;76.10;;;;;;4974926;28;20399;-87
2021/03/04 03:18:59;;;;;;;20.27;13.10;;;9.60;76.10;;;;;;4973669;28;20053;-87
2021/03/04 03:21:27;;;;;;;19.00;12.85;;;9.60;76.10;;;;;;4973349;28;20450;-87
2021/03/04 03:23:53;;;;;;;21.65;12.80;;;9.60;76.20;;;;;;4976624;28;20031;-88
2021/03/04 03:26:18;;;;;;;22.13;12.93;;;9.60;76.10;;;;;;4992769;28;20026;-87
2021/03/04 03:28:44;;;;;;;22.63;12.60;;;9.60;76.10;;;;;;4973592;28;20109;-88
2021/03/04 03:31:12;;;;;;;22.35;13.23;;;9.50;76.10;;;;;;4992804;28;20077;-87
2021/03/04 03:33:38;;;;;;;19.35;12.55;;;9.50;76.10;;;;;;4976921;28;20034;-87
2021/03/04 03:36:07;;;;;;;20.00;12.77;;;9.50;76.10;;;;;;4992347;28;20029;-86
2021/03/04 03:38:35;;;;;;;24.13;14.15;;;9.50;76.10;;;;;;4976841;28;20041;-87
2021/03/04 03:41:01;;;;;;;19.83;12.77;;;9.50;76.10;;;;;;4992344;28;20073;-87
2021/03/04 03:43:28;;;;;;;20.42;12.63;;;9.50;76.10;;;;;;4979490;28;20027;-88
2021/03/04 03:45:55;;;;;;;19.35;12.23;;;9.50;76.10;;;;;;4988487;28;20068;-87
2021/03/04 03:48:23;;;;;;;19.20;12.32;;;9.50;76.20;;;;;;4977649;28;20037;-87
2021/03/04 03:50:51;;;;;;;18.48;11.75;;;9.40;76.10;;;;;;4992768;28;20038;-88
2021/03/04 03:53:18;;;;;;;19.98;12.48;;;9.40;76.10;;;;;;4976364;28;20027;-87
2021/03/04 03:55:54;;;;;;;20.08;11.68;;;9.50;76.20;;;;;;4976823;28;20379;-88
2021/03/04 03:58:22;;;;;;;20.38;12.75;;;9.40;76.20;;;;;;4996104;28;20169;-88
2021/03/04 04:00:48;;;;;;;20.02;12.20;;;9.40;76.10;;;;;;4980232;28;20113;-87
2021/03/04 04:03:15;;;;;;;18.88;11.95;;;9.40;76.10;;;;;;4996723;28;20030;-88
2021/03/04 04:05:41;;;;;;;19.20;12.57;;;9.40;76.20;;;;;;4996589;28;20021;-87
2021/03/04 04:08:07;;;;;;;18.67;11.40;;;9.40;76.20;;;;;;4995909;28;20086;-88
2021/03/04 04:10:35;;;;;;;19.10;12.07;;;9.40;76.10;;;;;;4976685;28;20054;-88
2021/03/04 04:13:02;;;;;;;20.35;12.32;;;9.40;76.20;;;;;;4971598;28;20030;-87
2021/03/04 04:15:29;;;;;;;18.92;12.48;;;9.30;76.10;;;;;;4979788;28;20053;-88
2021/03/04 04:17:57;;;;;;;18.92;11.52;;;9.40;76.10;;;;;;4960510;28;20051;-87
2021/03/04 04:20:23;;;;;;;19.80;11.60;;;9.30;76.10;;;;;;4992221;28;20145;-87
2021/03/04 04:22:52;;;;;;;18.45;11.50;;;9.30;76.10;;;;;;4996391;28;20050;-89
2021/03/04 04:25:21;;;;;;;18.85;11.57;;;9.30;76.10;;;;;;4996058;28;20034;-89
2021/03/04 04:27:48;;;;;;;21.05;11.88;;;9.30;76.20;;;;;;4995788;28;20070;-88
2021/03/04 04:30:14;;;;;;;15.40;10.23;;;9.30;76.20;;;;;;4979790;28;20030;-88
2021/03/04 04:32:40;;;;;;;19.52;11.48;;;9.30;76.20;;;;;;4979277;28;20040;-88
2021/03/04 04:35:06;;;;;;;18.17;11.80;;;9.30;76.10;;;;;;4960276;28;20121;-88
2021/03/04 04:37:32;;;;;;;20.55;11.90;;;9.30;76.20;;;;;;4979431;28;20034;-88
2021/03/04 04:39:58;;;;;;;18.60;11.35;;;9.30;76.20;;;;;;4979516;28;20045;-88
2021/03/04 04:42:24;;;;;;;20.33;11.90;;;9.20;76.10;;;;;;4995567;28;20053;-88
2021/03/04 04:44:50;;;;;;;18.25;10.73;;;9.20;76.10;;;;;;4975997;28;20387;-88
2021/03/04 04:47:16;;;;;;;19.20;11.60;;;9.20;76.20;;;;;;4975703;28;20058;-88
2021/03/04 04:49:42;;;;;;;18.95;11.60;;;9.20;76.20;;;;;;4979276;28;20061;-88
2021/03/04 04:52:08;;;;;;;19.00;12.18;;;9.20;76.20;;;;;;4979173;28;20030;-87
2021/03/04 04:54:34;;;;;;;20.05;12.07;;;9.20;76.20;;;;;;4994575;28;20025;-87
2021/03/04 04:57:00;;;;;;;19.65;11.95;;;9.20;76.20;;;;;;4979134;28;20042;-88
2021/03/04 04:59:28;;;;;;;19.05;11.85;;;9.20;76.20;;;;;;4962750;28;20038;-88
2021/03/04 05:01:54;;;;;;;18.67;11.60;;;9.10;76.20;;;;;;4977319;28;20023;-83
2021/03/04 05:04:20;;;;;;;18.85;11.85;;;9.20;76.30;;;;;;4987751;28;20075;-84
2021/03/04 05:06:46;;;;;;;17.85;11.93;;;9.10;76.20;;;;;;4975962;28;20055;-84
2021/03/04 05:09:11;;;;;;;18.02;10.95;;;9.10;76.20;;;;;;4993572;28;20038;-83
2021/03/04 05:11:37;;;;;;;19.58;11.70;;;9.10;76.20;;;;;;4978187;28;20429;-83
2021/03/04 05:14:03;;;;;;;18.92;11.65;;;9.10;76.30;;;;;;4977068;28;20026;-83
2021/03/04 05:16:29;;;;;;;21.33;12.90;;;9.10;76.30;;;;;;4960109;28;20027;-82
2021/03/04 05:18:55;;;;;;;20.92;11.82;;;9.10;76.30;;;;;;4994783;28;20558;-83
2021/03/04 05:21:20;;;;;;;19.67;12.43;;;9.10;76.30;;;;;;4994528;28;20479;-83
2021/03/04 05:23:46;;;;;;;19.17;11.98;;;9.10;76.30;;;;;;4978113;28;20076;-83
2021/03/04 05:26:12;;;;;;;17.80;11.07;;;9.00;76.20;;;;;;4994483;28;20022;-84
2021/03/04 05:28:38;;;;;;;20.15;12.10;;;9.00;76.30;;;;;;4995142;28;20022;-86
2021/03/04 05:31:04;;;;;;;18.75;11.48;;;9.00;76.30;;;;;;4978503;28;20498;-85
2021/03/04 05:33:29;;;;;;;18.30;11.98;;;9.00;76.30;;;;;;4993807;28;20034;-85
2021/03/04 05:35:55;;;;;;;18.48;11.63;;;9.10;76.30;;;;;;4977544;28;20037;-86
2021/03/04 05:38:21;;;;;;;20.48;12.30;;;9.00;76.30;;;;;;4962308;28;20035;-86
2021/03/04 05:40:47;;;;;;;18.40;11.30;;;9.00;76.30;;;;;;4977667;28;20050;-85
2021/03/04 05:43:13;;;;;;;18.83;12.05;;;9.00;76.30;;;;;;4958943;28;20035;-87
2021/03/04 05:45:40;;;;;;;18.90;11.10;;;9.00;76.30;;;;;;4969892;28;20030;-86
2021/03/04 05:48:08;;;;;;;20.80;11.93;;;9.00;76.30;;;;;;4980663;28;20030;-86
2021/03/04 05:50:37;;;;;;;16.77;11.23;;;8.90;76.30;;;;;;4994171;28;20041;-85
2021/03/04 05:53:08;;;;;;;19.15;11.02;;;8.90;76.30;;;;;;4979480;28;20379;-85
2021/03/04 05:55:35;;;;;;;19.90;12.43;;;8.90;76.30;;;;;;4977556;28;20026;-85
2021/03/04 05:58:02;;;;;;;20.05;11.48;;;8.90;76.30;;;;;;4975204;28;20043;-81
2021/03/04 06:00:28;;;;;;;20.77;12.18;;;8.90;76.30;;;;;;4945863;28;20038;-86
2021/03/04 06:02:54;;;;;;;19.23;11.38;;;8.90;76.30;;;;;;4994146;28;20062;-90
2021/03/04 06:05:20;;;;;;;18.42;11.68;;;8.90;76.30;;;;;;4961792;28;20121;-87
2021/03/04 06:07:46;;;;;;;21.67;12.70;;;8.90;76.30;;;;;;4973570;28;20129;-83
2021/03/04 06:10:14;;;;;;;18.90;11.98;;;8.90;76.30;;;;;;4992721;28;20030;-82
2021/03/04 06:12:41;;;;;;;19.42;11.52;;;8.90;76.40;;;;;;4990062;28;20026;-87
2021/03/04 06:15:08;;;;;;;21.17;13.07;;;8.90;76.40;;;;;;4975942;28;20470;-90
2021/03/04 06:17:34;;;;;;;18.08;11.10;;;8.90;76.40;;;;;;4975685;28;20038;-89
2021/03/04 06:20:07;;;;;;;18.55;12.13;;;8.90;76.30;;;;;;4991732;28;20026;-89
2021/03/04 06:22:35;;;;;;;19.70;12.25;;;8.90;76.40;;;;;;4989741;28;20025;-85
2021/03/04 06:25:07;;;;;;;19.52;11.45;;;8.90;76.30;;;;;;4993751;28;20049;-87
2021/03/04 06:27:35;;;;;;;21.30;11.32;;;8.80;76.30;;;;;;4994436;28;20049;-88
2021/03/04 06:30:06;;;;;;;18.50;10.98;;;8.80;76.30;;;;;;4993692;28;20030;-83
2021/03/04 06:32:32;;;;;;;18.98;10.73;;;8.80;76.30;;;;;;4977249;28;20014;-87
2021/03/04 06:35:12;;;;;;;17.85;11.07;;;8.80;76.30;;;;;;4976836;28;20463;-87
2021/03/04 06:37:40;;;;;;;19.90;11.40;;;8.80;76.40;;;;;;4993388;28;20034;-87
2021/03/04 06:40:16;;;;;;;17.67;10.57;;;8.80;76.30;;;;;;4974475;28;20502;-88
2021/03/04 06:42:43;;;;;;;17.80;11.48;;;8.80;76.40;;;;;;4990273;28;20044;-88
2021/03/04 06:45:29;;;;;;;17.65;11.00;;;8.80;76.40;;;;;;4995212;28;20045;-87
2021/03/04 06:48:05;;;;;;;;;;;8.80;76.50;;;;;;4973929;28;20030;-88
2021/03/04 06:50:31;;;;;;;18.45;10.20;;;8.70;76.30;;;;;;4984816;28;19916;-88
2021/03/04 06:52:56;;;;;;;17.50;10.63;;;8.80;76.20;;;;;;4993082;28;20097;-88
2021/03/04 06:55:22;;;;;;;18.15;11.27;;;8.80;76.40;;;;;;4977154;28;20042;-88
2021/03/04 06:58:03;;;;;;;20.15;11.20;;;8.70;76.40;;;;;;4974934;28;20047;-89
2021/03/04 07:00:29;;;;;;;17.45;10.60;;;8.70;76.50;;;;;;4977130;28;20085;-88
2021/03/04 07:02:57;;;;;;;20.77;12.07;;;8.70;76.40;;;;;;4993565;28;20069;-87
2021/03/04 07:05:26;;;;;;;19.98;11.43;;;8.70;76.50;;;;;;4976859;28;20138;-87
2021/03/04 07:07:54;;;;;;;19.00;11.43;;;8.70;76.50;;;;;;4960254;28;20050;-87
2021/03/04 07:10:23;;;;;;;19.42;11.82;;;8.70;76.50;;;;;;4993517;28;20061;-88
2021/03/04 07:12:49;;;;;;;20.00;11.82;;;8.70;76.40;;;;;;4976680;28;20015;-88
2021/03/04 07:15:18;;;;;;;18.70;11.20;;;8.70;76.40;;;;;;4976810;28;20018;-87
2021/03/04 07:17:46;;;;;;;19.88;11.43;;;8.70;76.50;;;;;;4976567;28;20057;-87
2021/03/04 07:20:14;;;;;;;18.90;10.32;;;8.70;76.40;;;;;;4976831;28;20033;-88
2021/03/04 07:22:45;;;;;;;19.25;11.35;;;8.60;76.40;;;;;;4993908;28;20459;-89
2021/03/04 07:25:17;;;;;;;19.88;12.18;;;8.60;76.40;;;;;;4992860;28;20030;-88
2021/03/04 07:27:43;;;;;;;18.70;11.45;;;8.60;76.40;;;;;;4973549;28;20030;-87
2021/03/04 07:30:10;;;;;;;19.63;11.85;;;8.60;76.40;;;;;;4985704;28;20030;-88
2021/03/04 07:32:37;;;;;;;19.27;11.98;;;8.60;76.40;;;;;;4994217;28;20022;-89
2021/03/04 07:35:13;;;;;;;18.08;10.77;;;8.60;76.40;;;;;;4980896;28;20459;-87
2021/03/04 07:37:41;;;;;;;18.40;10.93;;;8.60;76.50;;;;;;4980274;28;20081;-88
2021/03/04 07:40:08;;;;;;;20.80;11.50;;;8.60;76.40;;;;;;4978803;28;20027;-87
2021/03/04 07:42:34;;;;;;;18.45;11.18;;;8.60;76.40;;;;;;4976442;28;20065;-88
2021/03/04 07:45:16;;;;;;;19.35;12.02;;;8.60;76.40;;;;;;4980933;28;20114;-86
2021/03/04 07:47:42;;;;;;;17.75;10.57;;;8.60;76.50;;;;;;4980246;28;20034;-87
2021/03/04 07:50:16;;;;;;;21.45;12.50;;;8.60;76.40;;;;;;4961323;28;20054;-86
2021/03/04 07:52:42;;;;;;;18.75;11.02;;;8.60;76.50;;;;;;4992489;28;20486;-88
2021/03/04 07:55:11;;;;;;;19.50;11.52;;;8.60;76.50;;;;;;4996420;28;20467;-87
2021/03/04 07:57:49;;;;;;;17.05;10.80;;;8.60;76.50;;;;;;4980292;28;20041;-88
2021/03/04 08:00:16;;;;;;;19.88;10.80;;;8.60;76.50;;;;;;4964686;28;20035;-87
2021/03/04 08:02:43;;;;;;;18.30;11.00;;;8.60;76.50;;;;;;4989685;28;20027;-88
2021/03/04 08:05:15;;;;;;;16.45;9.98;;;8.50;76.40;;;;;;4996284;28;20041;-88
2021/03/04 08:07:43;;;;;;;18.98;10.65;;;8.50;76.50;;;;;;4997298;28;20134;-88
2021/03/04 08:10:17;;;;;;;17.85;10.43;;;8.50;76.50;;;;;;4980063;28;20530;-88
2021/03/04 08:12:48;;;;;;;17.73;10.53;;;8.50;76.50;;;;;;4996005;28;20058;-87
2021/03/04 08:15:15;;;;;;;19.60;10.60;;;8.50;76.50;;;;;;4996035;28;20030;-88
2021/03/04 08:17:41;;;;;;;18.50;10.73;;;8.50;76.50;;;;;;4995670;28;20044;-88
2021/03/04 08:20:11;;;;;;;19.15;10.77;;;8.50;76.50;;;;;;4979835;28;20117;-86
2021/03/04 08:22:44;;;;;;;20.92;11.05;;;8.50;76.50;;;;;;4996000;28;20019;-87
2021/03/04 08:25:31;;;;;;;19.60;10.70;;;8.50;76.50;;;;;;4967970;28;20081;-85
2021/03/04 08:28:02;;;;;;;19.15;10.73;;;8.50;76.50;;;;;;4967185;28;20038;-87
2021/03/04 08:30:34;;;;;;;16.40;9.93;;;8.50;76.50;;;;;;4995753;28;20034;-85
2021/03/04 08:33:06;;;;;;;19.55;11.02;;;8.40;76.50;;;;;;4995485;28;20033;-85
2021/03/04 08:35:38;;;;;;;17.90;9.90;;;8.50;76.60;;;;;;4981040;28;20026;-84
2021/03/04 08:38:09;;;;;;;18.30;10.00;;;8.50;76.50;;;;;;4995223;28;20038;-83
2021/03/04 08:40:51;;;;;;;19.55;10.27;;;8.50;76.50;;;;;;5012428;28;20031;-84
2021/03/04 08:43:27;;;;;;;15.93;9.38;;;8.50;76.60;;;;;;4987562;28;20034;-83
2021/03/04 08:45:54;;;;;;;17.88;10.30;;;8.40;76.50;;;;;;4980311;28;20034;-86
2021/03/04 08:48:20;;;;;;;18.35;9.93;;;8.50;76.50;;;;;;4996953;28;20084;-92
2021/03/04 08:50:49;;;;;;;17.02;10.48;;;8.40;76.50;;;;;;4980777;28;20084;-81
2021/03/04 08:53:17;;;;;;;18.23;10.07;;;8.40;76.50;;;;;;4997523;28;20019;-86
2021/03/04 08:55:51;;;;;;;19.77;11.55;;;8.50;76.60;;;;;;4996353;28;20161;-84
2021/03/04 08:58:18;;;;;;;15.88;9.98;;;8.40;76.60;;;;;;4996713;28;20471;-84
2021/03/04 09:01:01;;;;;;;20.08;10.80;;;8.50;76.60;;;;;;4995695;28;20050;-87
2021/03/04 09:03:29;;;;;;;17.08;9.65;;;8.50;76.70;;;;;;4978847;28;20023;-87
2021/03/04 09:06:24;;;;;;;17.42;10.13;;;8.40;76.50;;;;;;4995268;28;20038;-83
2021/03/04 09:08:50;;;;;;;17.95;10.43;;;8.40;76.70;;;;;;4954601;28;20077;-89
2021/03/04 09:11:32;;;;;;;17.30;9.73;;;8.40;76.50;;;;;;4995327;28;20030;-82
2021/03/04 09:14:12;;;;;;;17.75;9.82;;;8.40;76.70;;;;;;4974753;28;20023;-82
2021/03/04 09:16:42;;;;;;;16.88;10.07;;;8.40;76.60;;;;;;4988821;28;20031;-79
2021/03/04 09:19:09;;;;;;;17.92;10.13;;;8.40;77.20;;;;;;4993739;28;20468;-79
2021/03/04 09:21:35;;;;;;;16.60;9.45;;;8.40;77.20;;;;;;4994614;28;20117;-80
2021/03/04 09:24:01;;;;;;;15.63;8.50;;;8.40;76.50;;;;;;4974281;28;20035;-77
2021/03/04 09:26:32;;;;;;;16.30;9.45;;;8.40;76.50;;;;;;4982922;28;20102;-79
2021/03/04 09:29:01;;;;;;;19.88;9.60;;;8.40;76.60;;;;;;4993140;28;20033;-79
2021/03/04 09:31:27;;;;;;;18.58;10.30;;;8.40;77.20;;;;;;4994653;28;20034;-79
2021/03/04 09:33:58;;;;;;;16.77;9.10;;;8.40;76.60;;;;;;4973853;28;20034;-80
2021/03/04 09:36:24;;;;;;;16.27;8.82;;;8.40;76.60;;;;;;4993200;28;20034;-80
2021/03/04 09:38:52;;;;;;;16.88;9.70;;;8.40;76.60;;;;;;4977317;28;20065;-81
2021/03/04 09:41:19;;;;;;;15.65;9.05;;;8.40;76.60;;;;;;4977040;28;20034;-79
2021/03/04 09:43:48;;;;;;;16.55;9.25;;;8.40;76.60;;;;;;4993393;28;20181;-81
2021/03/04 09:46:29;;;;;;;14.52;8.80;;;8.40;76.60;;;;;;4993459;28;20485;-80
2021/03/04 09:49:15;;;;;;;15.07;8.73;;;8.40;76.70;;;;;;4977061;28;20080;-86
2021/03/04 09:51:45;;;;;;;16.10;8.85;;;8.40;76.70;;;;;;4980598;28;20034;-80
2021/03/04 09:54:11;;;;;;;13.40;8.13;;;8.40;76.50;;;;;;4976979;28;20037;-80
2021/03/04 09:56:37;;;;;;;14.13;8.52;;;8.40;76.60;;;;;;4993060;28;20072;-79
2021/03/04 09:59:03;;;;;;;16.50;9.60;;;8.40;76.60;;;;;;4992923;28;20109;-81
2021/03/04 10:01:33;;;;;;;15.70;8.55;;;8.40;76.60;;;;;;4993075;28;20357;-82
2021/03/04 10:04:07;;;;;;;17.92;8.60;;;8.40;76.60;;;;;;4992914;28;20029;-83
2021/03/04 10:06:36;;;;;;;14.63;8.35;;;8.40;76.70;;;;;;4993664;28;20068;-85
2021/03/04 10:09:04;;;;;;;13.63;7.95;;;8.40;77.30;;;;;;4993484;28;20026;-84
2021/03/04 10:11:32;;;;;;;18.02;9.05;;;8.40;76.60;;;;;;4977440;28;20034;-85
2021/03/04 10:14:11;;;;;;;15.95;8.90;;;8.40;76.60;;;;;;4977773;28;20084;-85
2021/03/04 10:16:37;;;;;;;14.88;7.95;;;8.40;76.70;;;;;;4977673;28;20038;-85
2021/03/04 10:19:05;;;;;;;15.05;8.32;;;8.40;76.60;;;;;;4993480;28;20041;-84
2021/03/04 10:21:31;;;;;;;15.93;8.60;;;8.40;76.60;;;;;;4994520;28;20022;-85
2021/03/04 10:23:57;;;;;;;14.30;8.52;;;8.40;76.60;;;;;;4976708;28;20026;-85
2021/03/04 10:26:22;;;;;;;13.07;7.47;;;8.40;76.60;;;;;;4993507;28;20030;-87
2021/03/04 10:28:48;;;;;;;14.63;7.90;;;8.50;76.70;;;;;;4977639;28;20034;-85
2021/03/04 10:31:14;;;;;;;14.15;8.27;;;8.40;76.60;;;;;;4977349;28;20077;-85
2021/03/04 10:33:40;;;;;;;14.20;7.30;;;8.50;76.60;;;;;;4977326;28;20058;-85
2021/03/04 10:36:06;;;;;;;13.52;8.18;;;8.40;76.60;;;;;;4994095;28;20034;-85
2021/03/04 10:38:32;;;;;;;13.88;8.20;;;8.50;76.60;;;;;;4941947;28;20046;-85
2021/03/04 10:40:57;;;;;;;12.20;7.35;;;8.40;77.20;;;;;;4989654;28;20445;-86
2021/03/04 10:43:23;;;;;;;13.30;7.50;;;8.40;76.50;;;;;;4976907;28;20042;-85
2021/03/04 10:45:49;;;;;;;12.32;7.13;;;8.50;76.60;;;;;;4942120;28;20037;-85
2021/03/04 10:48:15;;;;;;;12.45;7.25;;;8.50;76.60;;;;;;4957335;28;20133;-84
2021/03/04 10:50:41;;;;;;;14.38;7.88;;;8.50;76.60;;;;;;4969786;28;20030;-86
2021/03/04 10:53:07;;;;;;;12.65;7.90;;;8.50;76.60;;;;;;4976514;28;20025;-85
2021/03/04 10:55:33;;;;;;;13.60;7.68;;;8.50;76.70;;;;;;4976938;28;20459;-85
2021/03/04 10:57:58;;;;;;;14.88;7.47;;;8.50;76.60;;;;;;4959603;28;20031;-85
2021/03/04 11:00:24;;;;;;;13.60;6.97;;;8.50;76.70;;;;;;4977265;28;20042;-85
2021/03/04 11:02:50;;;;;;;13.65;6.90;;;8.50;76.70;;;;;;4976844;28;20058;-85
2021/03/04 11:05:16;;;;;;;11.98;6.90;;;8.50;76.70;;;;;;4976329;28;20344;-85
2021/03/04 11:07:42;;;;;;;10.77;5.97;;;8.50;76.70;;;;;;4960051;28;20088;-85
2021/03/04 11:10:09;;;;;;;12.88;7.25;;;8.50;76.70;;;;;;4992584;28;20444;-86
2021/03/04 11:12:35;;;;;;;13.20;7.40;;;8.50;76.70;;;;;;4976690;28;20494;-85
2021/03/04 11:15:03;;;;;;;11.63;6.90;;;8.50;76.60;;;;;;4976335;28;20030;-85
2021/03/04 11:17:29;;;;;;;10.57;6.53;;;8.50;76.60;;;;;;4975852;28;20116;-84
2021/03/04 11:19:54;;;;;;;13.93;7.22;;;8.50;76.60;;;;;;4992425;28;20060;-82
2021/03/04 11:22:20;;;;;;;11.85;6.90;;;8.50;76.80;;;;;;4975434;28;20388;-82
2021/03/04 11:24:47;;;;;;;12.65;7.22;;;8.50;76.60;;;;;;4992193;28;20062;-82
2021/03/04 11:27:14;;;;;;;12.90;6.47;;;8.60;76.70;;;;;;4991733;28;20039;-82
2021/03/04 11:29:47;;;;;;;11.73;7.00;;;8.60;76.70;;;;;;4975772;28;20028;-82
2021/03/04 11:32:16;;;;;;;12.00;6.75;;;8.60;76.70;;;;;;4991607;28;20502;-83
2021/03/04 11:34:41;;;;;;;11.95;6.18;;;8.50;76.60;;;;;;4991847;28;20034;-82
2021/03/04 11:37:07;;;;;;;12.32;6.47;;;8.60;76.60;;;;;;4975500;28;20491;-82
2021/03/04 11:39:33;;;;;;;10.52;6.13;;;8.60;76.60;;;;;;4975778;28;20034;-82
2021/03/04 11:41:59;;;;;;;9.65;5.65;;;8.60;76.60;;;;;;4975697;28;20026;-82
2021/03/04 11:44:24;;;;;;;10.07;6.63;;;8.60;76.60;;;;;;4975749;28;20038;-84
2021/03/04 11:46:50;;;;;;;12.43;6.07;;;8.60;76.60;;;;;;4944082;28;20109;-83
2021/03/04 11:49:16;;;;;;;10.63;6.28;;;8.60;76.60;;;;;;4952807;28;20079;-89
2021/03/04 11:51:42;;;;;;;9.65;5.30;;;8.60;76.50;;;;;;4993779;28;20027;-89
2021/03/04 11:54:07;;;;;;;10.18;5.72;;;8.60;76.50;;;;;;4976496;28;20494;-90
2021/03/04 11:56:33;;;;;;;10.02;6.05;;;8.60;76.50;;;;;;4976279;28;20022;-91
2021/03/04 11:59:02;;;;;;;9.60;5.22;;;8.60;76.60;;;;;;4992563;28;20041;-88
2021/03/04 12:01:28;;;;;;;10.45;5.65;;;8.60;76.50;;;;;;4992885;28;20023;-88
2021/03/04 12:03:54;;;;;;;8.10;4.53;;;8.60;76.50;;;;;;4976437;28;20034;-89
2021/03/04 12:06:21;;;;;;;8.90;5.35;;;8.60;76.50;;;;;;4976202;28;20041;-89
2021/03/04 12:08:46;;;;;;;8.55;5.13;;;8.60;76.50;;;;;;4975976;28;20049;-89
2021/03/04 12:11:12;;;;;;;6.97;4.47;;;8.60;76.50;;;;;;4976401;28;20030;-89
2021/03/04 12:13:38;;;;;;;7.78;4.70;;;8.60;76.50;;;;;;4992509;28;20034;-90
2021/03/04 12:16:05;;;;;;;8.95;4.88;;;8.60;76.40;;;;;;4976234;28;20062;-89
2021/03/04 12:18:35;;;;;;;7.38;4.25;;;8.60;76.50;;;;;;4976320;28;20054;-90
2021/03/04 12:21:03;;;;;;;8.15;4.15;;;8.70;76.60;;;;;;4997133;28;20027;-89
2021/03/04 12:23:29;;;;;;;7.30;4.50;;;8.60;76.50;;;;;;4979668;28;20033;-89
2021/03/04 12:25:55;;;;;;;6.97;4.30;;;8.60;76.40;;;;;;4997142;28;20014;-90
2021/03/04 12:28:21;;;;;;;6.32;3.78;;;8.70;76.50;;;;;;4995887;28;20084;-89
2021/03/04 12:30:47;;;;;;;6.60;3.67;;;8.70;76.50;;;;;;4996945;28;20030;-90
2021/03/04 12:33:13;;;;;;;6.78;4.25;;;8.70;76.40;;;;;;4996041;28;20037;-92
2021/03/04 12:35:40;;;;;;;6.65;3.92;;;8.70;76.40;;;;;;4979593;28;20031;-91
2021/03/04 12:38:06;;;;;;;5.35;3.20;;;8.70;76.40;;;;;;4963380;28;20047;-90
2021/03/04 12:40:34;;;;;;;6.40;3.95;;;8.70;76.40;;;;;;4995505;28;20139;-89
2021/03/04 12:43:00;;;;;;;5.32;3.63;;;8.70;76.40;;;;;;4963568;28;20030;-92